createdAt,value
2022-08-17T04:51:54.609Z,9.35
2022-08-17T04:54:23.794Z,9.32
2022-08-17T04:56:50.495Z,8.90
2022-08-17T04:59:19.690Z,8.90
2022-08-17T05:01:48.584Z,9.38
2022-08-17T05:04:33.764Z,9.23
2022-08-17T05:07:02.104Z,9.48
2022-08-17T05:09:29.012Z,8.30
2022-08-17T05:11:56.307Z,9.20
2022-08-17T05:14:33.606Z,9.10
2022-08-17T05:17:01.178Z,8.88
2022-08-17T05:19:28.330Z,8.98
2022-08-17T05:21:54.842Z,8.90
2022-08-17T05:24:39.864Z,8.40
2022-08-17T05:27:08.327Z,8.25
2022-08-17T05:29:35.705Z,8.35
2022-08-17T05:32:38.614Z,9.32
2022-08-17T05:35:00.791Z,8.53
2022-08-17T05:37:27.587Z,8.90
2022-08-17T05:39:54.510Z,8.80
2022-08-17T05:42:21.487Z,9.00
2022-08-17T05:44:48.067Z,9.20
2022-08-17T05:47:14.598Z,8.47
2022-08-17T05:49:41.149Z,8.20
2022-08-17T05:52:40.023Z,8.25
2022-08-17T05:55:20.306Z,8.93
2022-08-17T05:57:56.111Z,8.55
2022-08-17T06:00:42.083Z,8.60
2022-08-17T06:03:23.655Z,9.55
2022-08-17T06:06:01.229Z,9.32
2022-08-17T06:08:27.711Z,8.77
2022-08-17T06:11:12.917Z,8.43
2022-08-17T06:14:09.491Z,8.43
2022-08-17T06:16:39.741Z,8.68
2022-08-17T06:19:15.080Z,9.00
2022-08-17T06:21:44.990Z,8.40
2022-08-17T06:24:29.878Z,8.55
2022-08-17T06:27:03.840Z,8.40
2022-08-17T06:29:50.966Z,8.10
2022-08-17T06:32:17.488Z,7.70
2022-08-17T06:34:45.487Z,7.43
2022-08-17T06:37:27.233Z,7.75
2022-08-17T06:40:22.496Z,7.63
2022-08-17T06:43:21.371Z,7.88
2022-08-17T06:45:57.942Z,8.00
2022-08-17T06:49:01.412Z,8.27
2022-08-17T06:51:52.700Z,8.25
2022-08-17T06:54:28.485Z,7.67
2022-08-17T06:57:25.356Z,7.45
2022-08-17T07:00:01.981Z,8.18
2022-08-17T07:02:53.058Z,7.03
2022-08-17T07:05:22.658Z,6.70
2022-08-17T07:08:04.904Z,7.20
2022-08-17T07:11:01.012Z,7.03
2022-08-17T07:13:38.411Z,6.65
2022-08-17T07:16:14.977Z,7.40
2022-08-17T07:18:41.937Z,6.93
2022-08-17T07:21:19.110Z,6.87
2022-08-17T07:24:30.037Z,7.07
2022-08-17T07:27:12.918Z,6.90
2022-08-17T07:29:44.493Z,7.38
2022-08-17T07:32:12.301Z,7.40
2022-08-17T07:35:05.066Z,7.23
2022-08-17T07:37:33.301Z,7.97
2022-08-17T07:40:15.235Z,7.32
2022-08-17T07:42:46.673Z,7.03
2022-08-17T07:45:34.461Z,7.30
2022-08-17T07:48:19.295Z,6.77
2022-08-17T07:50:49.369Z,7.40
2022-08-17T07:53:19.400Z,6.97
2022-08-17T07:55:45.959Z,7.32
2022-08-17T07:58:20.811Z,7.00
2022-08-17T08:01:12.090Z,6.83
2022-08-17T08:03:41.610Z,7.22
2022-08-17T08:06:20.813Z,6.72
2022-08-17T08:08:52.143Z,7.20
2022-08-17T08:11:38.260Z,7.22
2022-08-17T08:14:38.563Z,7.20
2022-08-17T08:17:09.359Z,6.78
2022-08-17T08:19:36.466Z,7.55
2022-08-17T08:22:07.660Z,8.30
2022-08-17T08:24:55.866Z,8.25
2022-08-17T08:27:42.942Z,7.90
2022-08-17T08:30:14.310Z,7.85
2022-08-17T08:32:42.782Z,7.95
2022-08-17T08:35:17.604Z,7.90
2022-08-17T08:37:50.058Z,7.45
2022-08-17T08:40:41.265Z,7.53
2022-08-17T08:43:36.281Z,7.18
2022-08-17T08:46:19.647Z,7.85
2022-08-17T08:48:56.476Z,6.85
2022-08-17T08:51:49.334Z,7.88
2022-08-17T08:54:46.094Z,8.00
2022-08-17T08:57:34.315Z,7.70
2022-08-17T09:00:23.090Z,7.18
2022-08-17T09:03:52.451Z,7.75
2022-08-17T09:06:57.858Z,7.35
2022-08-17T09:09:33.526Z,6.93
2022-08-17T09:12:24.527Z,6.95
2022-08-17T09:14:57.158Z,6.72
2022-08-17T09:18:14.921Z,6.47
2022-08-17T09:20:57.753Z,6.70
2022-08-17T09:23:37.852Z,6.40
2022-08-17T09:26:23.762Z,6.82
2022-08-17T09:28:53.532Z,6.63
2022-08-17T09:31:55.449Z,6.50
2022-08-17T09:34:38.926Z,6.38
2022-08-17T09:37:19.405Z,6.17
2022-08-17T09:40:09.551Z,5.97
2022-08-17T09:42:43.560Z,5.18
2022-08-17T09:45:28.357Z,4.80
2022-08-17T09:47:57.815Z,5.47
2022-08-17T09:51:10.898Z,5.73
2022-08-17T09:53:38.785Z,5.90
2022-08-17T09:56:11.492Z,5.30
2022-08-17T09:59:17.115Z,4.80
2022-08-17T10:01:50.480Z,5.68
2022-08-17T10:04:49.906Z,5.10
2022-08-17T10:07:28.586Z,5.00
2022-08-17T10:10:14.333Z,4.65
2022-08-17T10:13:03.018Z,4.70
2022-08-17T10:15:52.200Z,4.13
2022-08-17T10:18:46.747Z,4.37
2022-08-17T10:21:36.374Z,4.40
2022-08-17T10:24:39.520Z,4.53
2022-08-17T10:27:42.889Z,4.55
2022-08-17T10:30:10.883Z,4.72
2022-08-17T10:32:46.822Z,4.40
2022-08-17T10:35:33.890Z,4.78
2022-08-17T10:38:15.357Z,4.72
2022-08-17T10:40:54.462Z,4.50
2022-08-17T10:43:36.878Z,5.25
2022-08-17T10:46:31.600Z,5.10
2022-08-17T10:49:24.517Z,4.78
2022-08-17T10:51:54.385Z,4.45
2022-08-17T10:54:37.415Z,4.82
2022-08-17T10:57:33.161Z,5.32
2022-08-17T11:00:01.637Z,5.10
2022-08-17T11:03:05.204Z,4.82
2022-08-17T11:06:12.600Z,5.00
2022-08-17T11:08:59.298Z,4.75
2022-08-17T11:11:35.940Z,4.93
2022-08-17T11:14:04.519Z,4.73
2022-08-17T11:16:52.079Z,5.13
2022-08-17T11:19:49.742Z,5.38
2022-08-17T11:22:33.477Z,4.70
2022-08-17T11:25:16.294Z,4.75
2022-08-17T11:27:43.327Z,4.70
2022-08-17T11:30:15.121Z,4.53
2022-08-17T11:32:54.589Z,4.55
2022-08-17T11:35:21.572Z,5.05
2022-08-17T11:38:10.851Z,4.45
2022-08-17T11:41:09.930Z,4.80
2022-08-17T11:44:07.238Z,4.72
2022-08-17T11:47:14.267Z,4.53
2022-08-17T11:50:23.472Z,4.45
2022-08-17T11:52:53.665Z,4.45
2022-08-17T11:55:35.839Z,4.80
2022-08-17T11:58:23.706Z,4.47
2022-08-17T12:00:56.357Z,4.80
2022-08-17T12:03:32.114Z,4.47
2022-08-17T12:06:17.510Z,4.97
2022-08-17T12:08:51.051Z,4.60
2022-08-17T12:11:55.460Z,5.10
2022-08-17T12:15:08.342Z,4.43
2022-08-17T12:17:40.118Z,4.88
2022-08-17T12:20:24.030Z,4.70
2022-08-17T12:23:10.050Z,4.10
2022-08-17T12:25:45.523Z,4.20
2022-08-17T12:28:23.885Z,4.50
2022-08-17T12:30:52.118Z,4.60
2022-08-17T12:33:25.360Z,4.00
2022-08-17T12:36:04.158Z,4.40
2022-08-17T12:38:34.613Z,4.60
2022-08-17T12:41:21.925Z,4.18
2022-08-17T12:44:14.693Z,4.28
2022-08-17T12:47:19.365Z,4.35
2022-08-17T12:49:50.618Z,4.67
2022-08-17T12:52:19.825Z,4.40
2022-08-17T12:54:58.891Z,4.68
2022-08-17T12:57:32.375Z,4.28
2022-08-17T13:00:22.111Z,4.07
2022-08-17T13:02:52.225Z,3.87
2022-08-17T13:05:30.253Z,4.00
2022-08-17T13:07:59.113Z,4.03
2022-08-17T13:10:33.154Z,4.38
2022-08-17T13:13:06.007Z,4.05
2022-08-17T13:15:44.630Z,4.13
2022-08-17T13:18:30.186Z,4.05
2022-08-17T13:20:58.888Z,4.35
2022-08-17T13:23:26.358Z,4.20
2022-08-17T13:26:00.474Z,4.40
2022-08-17T13:28:35.801Z,4.07
2022-08-17T13:31:30.358Z,4.10
2022-08-17T13:35:11.752Z,5.00
2022-08-17T13:37:35.361Z,4.43
2022-08-17T13:40:05.045Z,4.05
2022-08-17T13:42:53.057Z,4.33
2022-08-17T13:45:36.114Z,4.32
2022-08-17T13:48:13.740Z,4.30
2022-08-17T13:50:48.192Z,3.95
2022-08-17T13:53:25.277Z,4.05
2022-08-17T13:55:55.181Z,4.30
2022-08-17T13:58:31.824Z,4.20
2022-08-17T14:00:58.967Z,4.05
2022-08-17T14:03:25.418Z,4.15
2022-08-17T14:05:52.444Z,4.22
2022-08-17T14:08:20.093Z,4.20
2022-08-17T14:10:57.175Z,3.88
2022-08-17T14:13:23.998Z,3.88
2022-08-17T14:15:55.636Z,4.03
2022-08-17T14:18:54.269Z,3.55
2022-08-17T14:21:09.875Z,3.63
2022-08-17T14:23:37.119Z,4.00
2022-08-17T14:26:03.897Z,4.40
2022-08-17T14:28:30.454Z,3.72
2022-08-17T14:30:58.657Z,3.65
2022-08-17T14:33:25.300Z,3.67
2022-08-17T14:35:53.441Z,3.55
2022-08-17T14:38:20.593Z,3.55
2022-08-17T14:40:47.958Z,3.75
2022-08-17T14:43:15.818Z,3.70
2022-08-17T14:45:43.065Z,3.37
2022-08-17T14:48:09.885Z,3.63
2022-08-17T14:50:38.950Z,3.92
2022-08-17T14:53:07.506Z,3.88
2022-08-17T14:55:34.814Z,3.50
2022-08-17T14:58:01.629Z,4.00
2022-08-17T15:00:28.483Z,4.03
2022-08-17T15:02:58.181Z,4.03
2022-08-17T15:05:27.467Z,3.90
2022-08-17T15:07:54.053Z,4.00
2022-08-17T15:10:21.171Z,3.70
2022-08-17T15:12:47.802Z,4.35
2022-08-17T15:15:16.634Z,3.78
2022-08-17T15:17:45.987Z,4.03
2022-08-17T15:20:15.965Z,3.78
2022-08-17T15:22:43.454Z,3.87
2022-08-17T15:25:10.750Z,4.20
2022-08-17T15:27:37.544Z,3.80
2022-08-17T15:30:05.837Z,3.80
2022-08-17T15:32:37.993Z,3.63
2022-08-17T15:35:05.902Z,3.50
2022-08-17T15:37:32.497Z,3.67
2022-08-17T15:40:01.246Z,3.53
2022-08-17T15:42:27.929Z,3.28
2022-08-17T15:44:55.173Z,3.60
2022-08-17T15:47:22.106Z,3.40
2022-08-17T15:49:48.805Z,3.45
2022-08-17T15:52:26.750Z,3.65
2022-08-17T15:54:59.541Z,3.90
2022-08-17T15:57:27.267Z,3.67
2022-08-17T15:59:58.411Z,4.10
2022-08-17T16:03:45.811Z,3.67
2022-08-17T16:05:17.747Z,3.63
2022-08-17T16:07:46.670Z,3.22
2022-08-17T16:10:18.303Z,3.17
2022-08-17T16:12:46.642Z,3.20
2022-08-17T16:15:13.797Z,3.80
2022-08-17T16:17:43.921Z,3.50
2022-08-17T16:20:20.344Z,3.35
2022-08-17T16:22:48.687Z,3.60
2022-08-17T16:25:51.913Z,3.70
2022-08-17T16:28:11.198Z,3.28
2022-08-17T16:30:38.234Z,3.20
2022-08-17T16:33:05.372Z,3.45
2022-08-17T16:35:31.909Z,3.15
2022-08-17T16:37:58.767Z,3.23
2022-08-17T16:40:27.446Z,3.50
2022-08-17T16:42:55.154Z,3.65
2022-08-17T16:45:27.365Z,3.35
2022-08-17T16:47:54.973Z,3.53
2022-08-17T16:50:23.016Z,3.63
2022-08-17T16:52:50.230Z,3.45
2022-08-17T16:55:21.375Z,3.65
2022-08-17T16:57:50.445Z,3.67
2022-08-17T17:00:19.301Z,3.85
2022-08-17T17:02:47.592Z,3.87
2022-08-17T17:05:32.517Z,3.75
2022-08-17T17:08:04.015Z,3.50
2022-08-17T17:10:43.392Z,3.90
2022-08-17T17:13:32.749Z,3.70
2022-08-17T17:16:14.279Z,3.50
2022-08-17T17:19:15.395Z,3.60
2022-08-17T17:21:51.913Z,4.00
2022-08-17T17:24:44.926Z,3.80
2022-08-17T17:27:29.402Z,3.88
2022-08-17T17:30:15.518Z,3.50
2022-08-17T17:32:50.131Z,3.95
2022-08-17T17:35:23.373Z,4.35
2022-08-17T17:37:52.009Z,3.28
2022-08-17T17:40:24.786Z,4.32
2022-08-17T17:43:05.444Z,3.93
2022-08-17T17:45:44.546Z,4.07
2022-08-17T17:48:11.738Z,4.07
2022-08-17T17:50:47.754Z,4.50
2022-08-17T17:53:56.711Z,4.53
2022-08-17T17:56:45.338Z,4.20
2022-08-17T17:59:32.988Z,4.10
2022-08-17T18:02:44.465Z,3.90
2022-08-17T18:05:39.431Z,4.47
2022-08-17T18:08:34.728Z,4.10
2022-08-17T18:11:24.179Z,4.03
2022-08-17T18:14:25.382Z,3.95
2022-08-17T18:16:56.123Z,4.10
2022-08-17T18:19:25.538Z,4.28
2022-08-17T18:22:07.686Z,4.00
2022-08-17T18:24:42.151Z,4.40
2022-08-17T18:27:24.625Z,4.13
2022-08-17T18:29:55.858Z,3.78
2022-08-17T18:32:32.874Z,3.70
2022-08-17T18:35:27.595Z,4.28
2022-08-17T18:38:20.342Z,4.17
2022-08-17T18:40:50.970Z,4.15
2022-08-17T18:43:26.556Z,4.32
2022-08-17T18:45:55.836Z,3.90
2022-08-17T18:48:38.208Z,4.25
2022-08-17T18:51:26.745Z,3.83
2022-08-17T18:54:19.015Z,4.45
2022-08-17T18:57:02.018Z,3.75
